Time;durP1;ratioP1;P1;durP2;ratioP2;P2;SDS_P1;SDS_P2;PMS_P1;PMS_P2;Temp;Humidity;BMP_temperature;BMP_pressure;BME280_temperature;BME280_humidity;BME280_pressure;Samples;Min_cycle;Max_cycle;Signal;HPM_P1;HPM_P2
2021/08/22 00:00:28;;;;;;;;;7.67;4.33;;;;;20.98;62.40;101476.91;5131025;27;46305;-84
2021/08/22 00:02:53;;;;;;;;;4.67;4.67;;;;;20.89;62.44;101467.22;5136629;27;45243;-84
2021/08/22 00:05:19;;;;;;;;;5.00;5.00;;;;;20.84;62.56;101450.34;5132610;27;45475;-84
2021/08/22 00:07:44;;;;;;;;;4.33;4.33;;;;;20.94;62.69;101470.69;5124353;27;45438;-86
2021/08/22 00:10:10;;;;;;;;;4.00;4.00;;;;;20.88;62.69;101457.41;5127885;27;46066;-85
2021/08/22 00:12:36;;;;;;;;;6.00;4.67;;;;;20.87;62.50;101449.41;5132302;27;45330;-84
2021/08/22 00:15:01;;;;;;;;;6.00;6.00;;;;;20.94;62.71;101462.66;5127092;27;45444;-85
2021/08/22 00:17:27;;;;;;;;;4.67;4.67;;;;;20.91;62.81;101452.03;5127232;27;45405;-85
2021/08/22 00:19:52;;;;;;;;;7.00;5.33;;;;;20.92;62.74;101466.25;5106555;27;47275;-85
2021/08/22 00:22:18;;;;;;;;;5.00;5.00;;;;;20.89;62.91;101453.84;5122609;27;45307;-85
2021/08/22 00:24:43;;;;;;;;;5.00;5.00;;;;;20.88;62.74;101456.50;5122165;27;45321;-85
2021/08/22 00:27:09;;;;;;;;;6.67;5.67;;;;;20.85;62.93;101446.78;5122939;27;45302;-85
2021/08/22 00:29:35;;;;;;;;;7.33;5.67;;;;;20.88;62.87;101448.50;5129891;27;45417;-85
2021/08/22 00:32:01;;;;;;;;;6.00;5.67;;;;;20.97;63.05;101464.41;5128477;27;45398;-86
2021/08/22 00:34:27;;;;;;;;;6.33;5.33;;;;;20.99;63.00;101467.09;5129214;27;45299;-85
2021/08/22 00:36:54;;;;;;;;;7.00;5.00;;;;;20.97;62.81;101477.78;5124194;27;45239;-85
2021/08/22 00:39:20;;;;;;;;;4.33;4.33;;;;;20.93;63.14;101476.94;5122512;27;46499;-86
2021/08/22 00:41:45;;;;;;;;;5.00;5.00;;;;;20.89;62.96;101464.53;5125609;27;45373;-87
2021/08/22 00:44:10;;;;;;;;;5.67;5.67;;;;;20.96;62.92;101472.47;5132228;27;45222;-84
2021/08/22 00:46:36;;;;;;;;;5.33;4.33;;;;;20.97;62.90;101476.88;5131486;27;45342;-86
2021/08/22 00:49:04;;;;;;;;;5.33;5.33;;;;;20.94;63.09;101472.47;5122124;27;46157;-87
2021/08/22 00:51:30;;;;;;;;;6.33;4.00;;;;;20.99;63.18;101485.78;5125331;27;45226;-90
2021/08/22 00:53:55;;;;;;;;;5.00;5.00;;;;;20.96;63.05;101481.38;5113420;27;45393;-87
2021/08/22 00:56:21;;;;;;;;;5.50;5.50;;;;;20.92;63.34;101467.16;5133323;27;45476;-87
2021/08/22 00:58:46;;;;;;;;;6.00;6.00;;;;;20.89;63.11;101464.53;5130988;27;45271;-88
2021/08/22 01:01:20;;;;;;;;;5.33;5.33;;;;;20.92;63.09;101480.50;5125021;27;45263;-90
2021/08/22 01:03:53;;;;;;;;;9.00;5.33;;;;;20.90;63.27;101471.63;5133320;27;45322;-86
2021/08/22 01:06:29;;;;;;;;;8.00;7.00;;;;;20.99;63.09;101489.34;5133223;27;45429;-88
2021/08/22 01:09:09;;;;;;;;;7.00;6.00;;;;;20.95;63.20;101484.94;5130729;27;47404;-85
2021/08/22 01:11:37;;;;;;;;;5.67;4.33;;;;;20.94;63.27;101489.38;5132333;27;45546;-86
2021/08/22 01:14:16;;;;;;;;;7.33;5.00;;;;;20.91;63.17;101483.22;5131870;27;45235;-87
2021/08/22 01:16:48;;;;;;;;;5.00;5.00;;;;;20.91;63.40;101480.53;5131050;27;44783;-85
2021/08/22 01:19:26;;;;;;;;;5.00;5.00;;;;;20.98;63.14;101497.41;5130246;27;47606;-87
2021/08/22 01:21:53;;;;;;;;;4.00;4.00;;;;;20.84;62.88;101471.72;5106308;27;45346;-87
2021/08/22 01:24:22;;;;;;;;;4.67;4.67;;;;;20.97;63.11;101491.13;5130721;27;45337;-86
2021/08/22 01:26:49;;;;;;;;;5.67;5.67;;;;;20.98;62.96;101497.41;5131888;27;44821;-88
2021/08/22 01:29:16;;;;;;;;;6.00;4.00;;;;;20.97;63.05;101504.50;5130420;27;46368;-87
2021/08/22 01:31:47;;;;;;;;;6.00;5.67;;;;;20.85;63.01;101484.19;5130999;27;44727;-86
2021/08/22 01:34:14;;;;;;;;;7.33;5.33;;;;;20.93;62.95;101508.13;5131287;27;45292;-85
2021/08/22 01:36:41;;;;;;;;;6.67;5.33;;;;;20.83;62.55;101497.53;5128329;27;45381;-85
2021/08/22 01:39:08;;;;;;;;;4.33;4.33;;;;;20.82;62.70;101510.94;5133193;27;45267;-85
2021/08/22 01:41:34;;;;;;;;;5.00;5.00;;;;;20.86;62.72;101511.75;5132508;27;45341;-86
2021/08/22 01:44:00;;;;;;;;;3.00;3.00;;;;;20.82;62.59;101513.59;5132351;27;45595;-85
2021/08/22 01:46:33;;;;;;;;;5.67;4.00;;;;;20.77;62.80;101504.78;5133026;27;45297;-87
2021/08/22 01:49:00;;;;;;;;;5.67;5.00;;;;;20.72;62.74;101504.84;5134291;27;45221;-87
2021/08/22 01:51:27;;;;;;;;;4.67;4.00;;;;;20.65;62.97;101487.09;5134226;27;45447;-86
2021/08/22 01:53:59;;;;;;;;;4.33;4.33;;;;;20.60;62.95;101489.84;5110066;27;45568;-85
2021/08/22 01:56:25;;;;;;;;;5.33;5.33;;;;;20.68;62.77;101511.13;5118755;27;45421;-88
2021/08/22 01:58:51;;;;;;;;;6.00;4.67;;;;;20.63;62.83;101505.84;5119125;27;46258;-85
2021/08/22 02:01:16;;;;;;;;;5.67;4.67;;;;;20.62;62.63;101504.06;5118766;27;45383;-85
2021/08/22 02:03:57;;;;;;;;;6.00;5.00;;;;;20.63;62.54;101507.59;5118859;27;45309;-85
2021/08/22 02:06:57;;;;;;;;;4.00;4.00;;;;;20.62;62.39;101513.88;5100333;27;45522;-86
2021/08/22 02:10:01;;;;;;;;;4.00;4.00;;;;;20.58;62.31;101515.72;5118069;27;46670;-85
2021/08/22 02:12:27;;;;;;;;;3.33;3.33;;;;;20.52;62.51;101519.31;5014842;28;45466;-84
2021/08/22 02:15:19;;;;;;;;;3.67;3.67;;;;;20.46;62.51;101509.59;5015103;28;45507;-84
2021/08/22 02:17:48;;;;;;;;;4.00;4.00;;;;;20.46;62.37;101520.28;5015082;28;45411;-84
2021/08/22 02:20:15;;;;;;;;;5.00;5.00;;;;;20.46;62.44;101525.63;5013402;28;45432;-84
2021/08/22 02:22:46;;;;;;;;;5.00;5.00;;;;;20.38;62.52;101511.47;5014307;28;45537;-84
2021/08/22 02:25:11;;;;;;;;;5.00;4.33;;;;;20.40;62.24;101515.00;5014499;28;45737;-84
2021/08/22 02:27:38;;;;;;;;;5.00;4.00;;;;;20.43;62.15;101527.44;5015122;28;45800;-85
2021/08/22 02:30:04;;;;;;;;;5.00;4.00;;;;;20.35;61.90;101511.50;5014796;28;45515;-85
2021/08/22 02:32:30;;;;;;;;;4.00;4.00;;;;;20.39;61.88;101518.56;5014564;28;45449;-84
2021/08/22 02:34:55;;;;;;;;;6.67;4.00;;;;;20.36;61.68;101513.28;5015297;28;45476;-88
2021/08/22 02:37:21;;;;;;;;;6.00;5.00;;;;;20.32;61.70;101514.22;4998699;28;45511;-88
2021/08/22 02:39:47;;;;;;;;;6.00;4.00;;;;;20.33;61.78;101523.97;5016007;28;45466;-86
2021/08/22 02:42:14;;;;;;;;;4.00;4.00;;;;;20.28;61.99;101518.69;5015857;28;45483;-87
2021/08/22 02:44:40;;;;;;;;;5.00;5.00;;;;;20.24;61.71;101512.50;5019814;28;45448;-84
2021/08/22 02:47:05;;;;;;;;;3.00;3.00;;;;;20.16;61.76;101516.16;5018193;28;45487;-85
2021/08/22 02:49:31;;;;;;;;;9.00;4.00;;;;;20.14;61.77;101513.50;5103354;27;45500;-86
2021/08/22 02:51:56;;;;;;;;;6.33;5.00;;;;;20.14;61.95;101513.50;5118154;27;45459;-85
2021/08/22 02:54:21;;;;;;;;;5.00;5.00;;;;;20.11;61.66;101506.44;5118191;27;45381;-85
2021/08/22 02:56:47;;;;;;;;;6.00;4.33;;;;;20.14;61.21;101526.84;5118094;27;45377;-85
2021/08/22 02:59:12;;;;;;;;;3.00;3.00;;;;;20.05;61.07;101524.25;5117856;27;46139;-85
2021/08/22 03:01:38;;;;;;;;;8.00;5.00;;;;;20.05;60.96;101521.56;5119068;27;45430;-85
2021/08/22 03:04:04;;;;;;;;;5.00;3.67;;;;;19.94;60.92;101513.66;5131320;27;45547;-86
2021/08/22 03:06:29;;;;;;;;;7.33;5.00;;;;;19.99;60.81;101528.72;5132723;27;45365;-87
2021/08/22 03:08:55;;;;;;;;;5.33;4.67;;;;;19.85;60.69;101512.84;5134354;27;45374;-88
2021/08/22 03:11:20;;;;;;;;;5.33;4.00;;;;;19.90;60.66;101528.81;5123518;27;45326;-87
2021/08/22 03:13:47;;;;;;;;;3.00;3.00;;;;;19.86;60.75;101519.94;5101241;27;45307;-88
2021/08/22 03:16:12;;;;;;;;;4.00;3.33;;;;;19.83;60.74;101527.09;5120877;27;45297;-88
2021/08/22 03:18:38;;;;;;;;;7.00;5.67;;;;;19.79;60.83;101528.91;5120334;27;46349;-88
2021/08/22 03:21:03;;;;;;;;;6.00;4.00;;;;;19.72;60.90;101517.41;5101495;27;45311;-86
2021/08/22 03:23:29;;;;;;;;;4.33;3.00;;;;;19.71;60.90;101523.66;5119317;27;45258;-89
2021/08/22 03:25:54;;;;;;;;;7.33;5.00;;;;;19.64;60.77;101514.81;5100038;27;45747;-87
2021/08/22 03:28:20;;;;;;;;;4.33;4.33;;;;;19.52;60.72;101504.25;5118434;27;46214;-86
2021/08/22 03:30:46;;;;;;;;;6.00;5.00;;;;;19.58;60.79;101511.31;5118388;27;45400;-87
2021/08/22 03:33:12;;;;;;;;;11.00;6.67;;;;;19.56;60.70;101519.31;5121810;27;45398;-85
2021/08/22 03:35:37;;;;;;;;;6.33;4.67;;;;;19.53;60.62;101522.00;5122322;27;45461;-87
2021/08/22 03:38:03;;;;;;;;;6.00;5.33;;;;;19.50;60.41;101522.03;5122672;27;46319;-85
2021/08/22 03:40:28;;;;;;;;;5.67;4.33;;;;;19.46;60.44;101509.63;5122806;27;45424;-87
2021/08/22 03:42:53;;;;;;;;;5.33;5.00;;;;;19.42;60.39;101512.28;5121974;27;45313;-87
2021/08/22 03:45:19;;;;;;;;;6.00;5.00;;;;;19.33;60.48;101510.56;5122681;27;45445;-86
2021/08/22 03:47:44;;;;;;;;;5.33;4.33;;;;;19.37;60.70;101530.13;5123096;27;45585;-86
2021/08/22 03:50:10;;;;;;;;;6.00;5.00;;;;;19.30;60.93;101521.28;5129042;27;45342;-85
2021/08/22 03:52:36;;;;;;;;;9.67;6.00;;;;;19.29;60.64;101530.16;5132021;27;45318;-85
2021/08/22 03:55:02;;;;;;;;;9.33;7.00;;;;;19.27;60.48;101534.59;5131175;27;45295;-86
2021/08/22 03:57:27;;;;;;;;;7.00;6.00;;;;;19.20;60.91;101523.13;5132191;27;45182;-85
2021/08/22 03:59:52;;;;;;;;;5.33;3.67;;;;;19.25;60.58;101531.06;5125488;27;45324;-87
2021/08/22 04:02:20;;;;;;;;;6.33;5.33;;;;;19.24;60.67;101529.31;5105922;27;45464;-87
2021/08/22 04:04:46;;;;;;;;;7.67;5.67;;;;;19.21;60.77;101524.88;5124655;27;45224;-86
2021/08/22 04:07:13;;;;;;;;;7.00;4.00;;;;;19.18;60.64;101522.25;5123428;27;46129;-85
2021/08/22 04:09:38;;;;;;;;;7.00;6.00;;;;;19.16;60.65;101528.47;5123447;27;45489;-85
2021/08/22 04:12:04;;;;;;;;;5.67;3.67;;;;;19.16;60.50;101533.81;5124471;27;45686;-88
2021/08/22 04:14:30;;;;;;;;;7.67;5.67;;;;;19.06;60.90;101523.16;5123853;27;45331;-85
2021/08/22 04:16:55;;;;;;;;;7.33;5.00;;;;;19.04;60.80;101513.38;5121040;27;46336;-86
2021/08/22 04:19:20;;;;;;;;;6.33;5.67;;;;;19.09;60.73;101536.47;5121555;27;45342;-85
2021/08/22 04:21:46;;;;;;;;;8.00;6.00;;;;;19.07;60.44;101535.59;5121184;27;45423;-87
2021/08/22 04:24:12;;;;;;;;;5.67;5.00;;;;;19.06;60.80;101539.13;5121366;27;45390;-88
2021/08/22 04:26:39;;;;;;;;;5.33;5.00;;;;;19.03;60.64;101539.16;5123804;27;46169;-88
2021/08/22 04:29:04;;;;;;;;;7.67;4.67;;;;;18.94;60.72;101537.44;5125582;27;45248;-87
2021/08/22 04:31:30;;;;;;;;;4.33;4.33;;;;;19.01;60.77;101540.97;5124625;27;45338;-86
2021/08/22 04:33:55;;;;;;;;;8.00;4.00;;;;;18.91;60.63;101523.25;5124566;27;45400;-86
2021/08/22 04:36:21;;;;;;;;;7.00;5.33;;;;;18.98;60.98;101536.53;5122802;27;45914;-86
2021/08/22 04:38:46;;;;;;;;;10.67;7.00;;;;;18.98;60.69;101541.84;5123707;27;45435;-86
2021/08/22 04:41:19;;;;;;;;;5.00;5.00;;;;;18.95;60.46;101546.31;5123849;27;45692;-85
2021/08/22 04:43:45;;;;;;;;;5.67;5.00;;;;;18.90;60.54;101530.34;5120886;27;45263;-85
2021/08/22 04:46:10;;;;;;;;;6.33;4.67;;;;;18.91;61.01;101548.09;5120413;27;46487;-85
2021/08/22 04:48:36;;;;;;;;;6.33;5.33;;;;;18.86;60.50;101536.59;5120165;27;45404;-86
2021/08/22 04:51:01;;;;;;;;;7.00;6.00;;;;;18.89;60.74;101541.03;5120590;27;45416;-85
2021/08/22 04:53:27;;;;;;;;;4.00;4.00;;;;;18.91;60.49;101539.22;5102779;27;45442;-88
2021/08/22 04:55:52;;;;;;;;;4.67;4.67;;;;;18.92;60.89;101547.22;5102282;27;46022;-86
2021/08/22 04:58:18;;;;;;;;;5.67;4.00;;;;;18.83;60.71;101532.16;5120207;27;45384;-85
2021/08/22 05:00:43;;;;;;;;;4.33;4.00;;;;;18.91;60.65;101556.06;5101554;27;45373;-87
2021/08/22 05:03:08;;;;;;;;;4.67;4.67;;;;;18.86;60.69;101553.47;5119882;27;45392;-85
2021/08/22 05:05:34;;;;;;;;;6.33;4.00;;;;;18.89;60.32;101559.66;5119303;27;45491;-87
2021/08/22 05:07:59;;;;;;;;;6.67;5.00;;;;;18.79;60.59;101540.16;5119618;27;45267;-86
2021/08/22 05:10:25;;;;;;;;;4.67;3.67;;;;;18.87;60.53;101559.66;5119774;27;45795;-86
2021/08/22 05:12:50;;;;;;;;;7.33;5.00;;;;;18.82;60.42;101551.69;5119666;27;45296;-86
2021/08/22 05:15:15;;;;;;;;;4.00;3.00;;;;;18.86;60.51;101561.44;5119347;27;45580;-86
2021/08/22 05:17:41;;;;;;;;;5.33;4.00;;;;;18.82;60.47;101551.69;5119691;27;45259;-87
2021/08/22 05:20:07;;;;;;;;;7.67;6.33;;;;;18.79;60.34;101545.47;5120041;27;45416;-86
2021/08/22 05:22:33;;;;;;;;;5.67;4.33;;;;;18.75;60.72;101539.28;5101963;27;45577;-86
2021/08/22 05:24:58;;;;;;;;;4.33;2.67;;;;;18.75;60.40;101544.59;5121412;27;45401;-88
2021/08/22 05:27:24;;;;;;;;;8.00;4.67;;;;;18.83;60.56;101553.47;5104131;27;45402;-87
2021/08/22 05:29:49;;;;;;;;;11.00;5.00;;;;;18.81;60.76;101546.34;5102046;27;45276;-87
2021/08/22 05:32:15;;;;;;;;;7.33;4.67;;;;;18.83;60.72;101553.47;5119322;27;45424;-86
2021/08/22 05:34:40;;;;;;;;;4.67;4.00;;;;;18.83;60.66;101552.56;5119809;27;45412;-89
2021/08/22 05:37:05;;;;;;;;;5.00;5.00;;;;;18.82;60.50;101559.69;5119801;27;45337;-86
2021/08/22 05:39:31;;;;;;;;;6.67;6.67;;;;;18.81;60.73;101555.25;5119683;27;45368;-90
2021/08/22 05:41:56;;;;;;;;;8.00;5.00;;;;;18.81;60.58;101565.91;5101184;27;45597;-87
2021/08/22 05:44:22;;;;;;;;;5.33;4.33;;;;;18.82;60.47;101562.34;5117862;27;47247;-88
2021/08/22 05:46:47;;;;;;;;;8.67;5.00;;;;;18.82;60.54;101578.34;5100770;27;45388;-89
2021/08/22 05:49:12;;;;;;;;;6.33;4.00;;;;;18.71;60.46;101561.50;5119413;27;45487;-88
2021/08/22 05:51:40;;;;;;;;;9.67;4.67;;;;;18.80;60.42;101572.13;5120174;27;45296;-88
2021/08/22 05:54:05;;;;;;;;;4.67;3.00;;;;;18.80;60.66;101569.47;5119625;27;46499;-86
2021/08/22 05:56:32;;;;;;;;;4.33;3.67;;;;;18.73;60.59;101557.03;5119360;27;45424;-90
2021/08/22 05:58:57;;;;;;;;;6.67;5.67;;;;;18.81;60.57;101568.56;5120399;27;45404;-90
2021/08/22 06:01:23;;;;;;;;;7.00;5.00;;;;;18.81;60.23;101571.22;5119622;27;45388;-86
2021/08/22 06:03:48;;;;;;;;;6.33;4.00;;;;;18.83;60.50;101565.88;5118846;27;45605;-86
2021/08/22 06:06:13;;;;;;;;;3.33;3.33;;;;;18.79;60.43;101573.00;5118887;27;45271;-86
2021/08/22 06:08:39;;;;;;;;;7.00;4.00;;;;;18.82;60.32;101591.66;5118613;27;45288;-85
2021/08/22 06:11:05;;;;;;;;;8.00;6.00;;;;;18.78;60.61;101586.34;5119065;27;45461;-85
2021/08/22 06:13:31;;;;;;;;;5.67;3.33;;;;;18.82;60.63;101593.44;5118694;27;46065;-85
2021/08/22 06:15:56;;;;;;;;;4.67;3.67;;;;;18.83;60.38;101590.75;5118748;27;45341;-85
2021/08/22 06:18:22;;;;;;;;;8.00;6.67;;;;;18.80;60.42;101582.78;5118695;27;45317;-85
2021/08/22 06:20:47;;;;;;;;;7.00;5.33;;;;;18.85;60.24;101596.06;5118527;27;45481;-85
2021/08/22 06:23:13;;;;;;;;;5.00;5.00;;;;;18.86;60.55;101601.41;5118562;27;46465;-86
2021/08/22 06:25:38;;;;;;;;;6.33;3.67;;;;;18.86;60.43;101596.09;5118323;27;45735;-85
2021/08/22 06:28:04;;;;;;;;;5.00;4.67;;;;;18.84;60.30;101596.97;5118970;27;45403;-86
2021/08/22 06:30:30;;;;;;;;;5.67;5.67;;;;;18.78;60.52;101581.00;5118982;27;45687;-84
2021/08/22 06:32:56;;;;;;;;;8.33;4.00;;;;;18.90;60.34;101601.38;5118311;27;45913;-85
2021/08/22 06:35:22;;;;;;;;;7.33;5.00;;;;;18.85;60.53;101594.28;5118107;27;45523;-85
2021/08/22 06:37:48;;;;;;;;;3.67;3.67;;;;;18.91;60.39;101609.34;5117865;27;45652;-85
2021/08/22 06:40:14;;;;;;;;;5.67;3.67;;;;;18.92;60.72;101602.25;5118374;27;45271;-86
2021/08/22 06:42:40;;;;;;;;;7.00;4.00;;;;;18.96;60.52;101606.69;5118122;27;45402;-85
2021/08/22 06:45:06;;;;;;;;;7.00;3.33;;;;;18.98;60.57;101612.91;5118390;27;45360;-85
2021/08/22 06:47:31;;;;;;;;;5.33;3.67;;;;;18.93;60.46;101607.56;5118502;27;45400;-86
2021/08/22 06:49:56;;;;;;;;;4.00;2.00;;;;;18.92;60.28;101611.16;5117997;27;45448;-85
2021/08/22 06:52:22;;;;;;;;;4.00;4.00;;;;;18.99;60.32;101622.69;5118375;27;45613;-85
2021/08/22 06:54:47;;;;;;;;;3.67;3.33;;;;;18.92;60.20;101611.16;5099673;27;45642;-85
2021/08/22 06:57:13;;;;;;;;;4.00;3.67;;;;;19.01;60.37;101622.66;5118795;27;45692;-86
2021/08/22 06:59:39;;;;;;;;;6.33;5.67;;;;;19.03;60.43;101621.78;5100021;27;45776;-85
2021/08/22 07:02:05;;;;;;;;;4.33;4.00;;;;;19.02;60.88;101614.66;5119613;27;46537;-86
2021/08/22 07:04:31;;;;;;;;;5.00;4.00;;;;;19.04;60.50;101615.53;5101131;27;45341;-86
2021/08/22 07:06:56;;;;;;;;;4.00;4.00;;;;;19.13;60.50;101632.38;5122413;27;45356;-85
2021/08/22 07:09:22;;;;;;;;;6.00;3.33;;;;;19.21;60.39;101643.91;5106389;27;45303;-85
2021/08/22 07:11:48;;;;;;;;;5.00;3.67;;;;;19.14;60.17;101627.03;5124497;27;46071;-86
2021/08/22 07:14:13;;;;;;;;;4.33;4.33;;;;;19.19;60.52;101619.06;5106182;27;45768;-87
2021/08/22 07:16:39;;;;;;;;;7.00;3.67;;;;;19.21;60.11;101619.94;5125205;27;45579;-85
2021/08/22 07:19:06;;;;;;;;;3.00;3.00;;;;;19.27;60.26;101616.38;5104403;27;45441;-85
2021/08/22 07:21:32;;;;;;;;;4.67;3.33;;;;;19.33;60.26;101638.53;5123260;27;45458;-85
2021/08/22 07:23:57;;;;;;;;;4.67;3.67;;;;;19.29;60.12;101639.44;5125476;27;45294;-85
2021/08/22 07:26:23;;;;;;;;;2.33;2.33;;;;;19.33;59.85;101641.19;5124417;27;45320;-86
2021/08/22 07:28:48;;;;;;;;;4.67;4.67;;;;;19.35;60.18;101641.22;5123872;27;45361;-87
2021/08/22 07:31:15;;;;;;;;;6.00;3.00;;;;;19.38;59.59;101645.63;5106079;27;48356;-86
2021/08/22 07:33:41;;;;;;;;;3.67;3.67;;;;;19.43;59.82;101654.50;5104039;27;45260;-86
2021/08/22 07:36:07;;;;;;;;;4.67;4.67;;;;;19.46;59.74;101643.81;5121391;27;45309;-85
2021/08/22 07:38:33;;;;;;;;;3.67;3.33;;;;;19.50;59.82;101653.56;5121256;27;45353;-87
2021/08/22 07:40:58;;;;;;;;;5.33;3.00;;;;;19.54;59.72;101655.31;5120963;27;46295;-86
2021/08/22 07:43:26;;;;;;;;;4.00;3.33;;;;;19.53;59.35;101658.00;5121609;27;45376;-90
2021/08/22 07:45:51;;;;;;;;;6.33;3.33;;;;;19.62;59.42;101665.97;5119879;27;45299;-77
2021/08/22 07:48:17;;;;;;;;;5.67;2.67;;;;;19.63;59.30;101645.50;5120625;27;45397;-77
2021/08/22 07:50:42;;;;;;;;;2.67;2.67;;;;;19.71;59.44;101656.13;5120599;27;46418;-78
2021/08/22 07:53:07;;;;;;;;;3.00;2.00;;;;;19.78;59.49;101650.72;5101833;27;45437;-78
2021/08/22 07:55:33;;;;;;;;;3.00;3.00;;;;;19.84;58.95;101648.94;5120895;27;45536;-77
2021/08/22 07:57:58;;;;;;;;;4.00;4.00;;;;;19.92;59.37;101643.53;5120271;27;45393;-78
2021/08/22 08:00:24;;;;;;;;;5.00;2.33;;;;;19.97;58.70;101647.94;5120111;27;46487;-78
2021/08/22 08:02:49;;;;;;;;;4.33;3.33;;;;;19.97;58.42;101639.94;5120063;27;45485;-78
2021/08/22 08:05:15;;;;;;;;;5.00;3.00;;;;;20.01;58.37;101655.03;5120349;27;45390;-79
2021/08/22 08:07:40;;;;;;;;;7.00;3.00;;;;;20.09;58.48;101654.13;5120493;27;45477;-77
2021/08/22 08:10:08;;;;;;;;;5.00;3.00;;;;;20.16;58.43;101650.50;5119979;27;46020;-77
2021/08/22 08:12:34;;;;;;;;;3.00;3.00;;;;;20.19;58.15;101655.81;5119811;27;45252;-77
2021/08/22 08:15:00;;;;;;;;;3.67;3.67;;;;;20.24;58.22;101664.66;5120044;27;45321;-77
2021/08/22 08:17:25;;;;;;;;;3.33;3.00;;;;;20.30;58.32;101674.44;5119583;27;45558;-77
2021/08/22 08:19:51;;;;;;;;;2.00;2.00;;;;;20.39;57.75;101670.75;5119655;27;45407;-77
2021/08/22 08:22:17;;;;;;;;;2.33;2.33;;;;;20.48;57.99;101673.38;5119510;27;45477;-77
2021/08/22 08:24:42;;;;;;;;;3.67;3.00;;;;;20.57;57.57;101667.06;5101400;27;45687;-77
2021/08/22 08:27:08;;;;;;;;;3.00;3.00;;;;;20.67;57.56;101674.97;5119657;27;45510;-77
2021/08/22 08:29:34;;;;;;;;;3.00;3.00;;;;;20.76;57.27;101672.22;5119213;27;46151;-78
2021/08/22 08:31:59;;;;;;;;;4.00;3.67;;;;;20.81;56.97;101675.69;5119443;27;45409;-77
2021/08/22 08:34:25;;;;;;;;;2.00;2.00;;;;;20.88;56.99;101687.22;5119790;27;45432;-77
2021/08/22 08:36:51;;;;;;;;;2.00;2.00;;;;;20.93;56.49;101690.75;5119791;27;45382;-77
2021/08/22 08:39:16;;;;;;;;;2.00;2.00;;;;;20.96;56.37;101686.25;5119192;27;46996;-77
2021/08/22 08:41:41;;;;;;;;;2.00;2.00;;;;;20.98;56.04;101687.16;5119531;27;45385;-78
2021/08/22 08:44:09;;;;;;;;;2.00;2.00;;;;;21.00;56.08;101696.06;5119197;27;45338;-77
2021/08/22 08:46:54;;;;;;;;;3.33;3.00;;;;;21.01;56.08;101684.44;5119400;27;45280;-78
2021/08/22 08:49:33;;;;;;;;;2.00;2.00;;;;;21.05;56.07;101678.16;5118833;27;46195;-77
2021/08/22 08:52:26;;;;;;;;;4.00;3.33;;;;;21.14;56.15;101683.41;5119124;27;45422;-77
2021/08/22 08:54:53;;;;;;;;;3.00;3.00;;;;;21.33;55.90;101680.50;5119143;27;45361;-77
2021/08/22 08:57:18;;;;;;;;;1.00;1.00;;;;;21.58;55.59;101684.63;5119094;27;45430;-78
2021/08/22 08:59:43;;;;;;;;;2.67;1.33;;;;;21.82;54.68;101686.09;5118828;27;46238;-77
2021/08/22 09:02:09;;;;;;;;;2.33;1.00;;;;;22.01;54.67;101684.97;5119179;27;45404;-78
2021/08/22 09:04:59;;;;;;;;;3.00;1.33;;;;;22.26;53.66;101684.56;5119247;27;45467;-78
2021/08/22 09:07:27;;;;;;;;;3.00;1.67;;;;;22.50;54.03;101680.59;5119397;27;45376;-78
2021/08/22 09:10:17;;;;;;;;;2.00;2.00;;;;;22.65;53.53;101671.38;5118758;27;47341;-78
2021/08/22 09:13:20;;;;;;;;;3.33;2.00;;;;;22.69;53.19;101691.00;5118885;27;45230;-83
2021/08/22 09:16:00;;;;;;;;;1.00;1.00;;;;;22.79;52.86;101687.25;5100363;27;45339;-84
2021/08/22 09:19:02;;;;;;;;;2.33;2.33;;;;;22.84;52.83;101694.31;5119165;27;45349;-90
2021/08/22 09:22:05;;;;;;;;;3.67;2.33;;;;;22.93;52.36;101699.47;5118979;27;45332;-83
2021/08/22 09:24:30;;;;;;;;;3.00;2.00;;;;;23.24;52.81;101690.84;5119117;27;45304;-83
2021/08/22 09:27:30;;;;;;;;;2.33;2.33;;;;;23.33;52.08;101694.25;5118964;27;45437;-82
2021/08/22 09:30:31;;;;;;;;;3.33;2.00;;;;;23.27;51.08;101705.97;5118614;27;45369;-80
2021/08/22 09:33:22;;;;;;;;;1.33;1.00;;;;;23.20;50.69;101701.66;5118415;27;46937;-82
2021/08/22 09:36:18;;;;;;;;;4.00;2.00;;;;;23.16;50.72;101702.63;5119503;27;45384;-83
2021/08/22 09:39:20;;;;;;;;;2.00;2.00;;;;;23.14;50.69;101699.97;5121701;27;45397;-84
2021/08/22 09:42:24;;;;;;;;;2.67;2.00;;;;;23.09;50.37;101709.91;5125988;27;45399;-81
2021/08/22 09:45:27;;;;;;;;;2.00;2.00;;;;;22.95;50.10;101711.06;5020443;28;46059;-83
2021/08/22 09:48:30;;;;;;;;;3.00;1.67;;;;;22.85;50.66;101721.06;5018749;28;45377;-83
2021/08/22 09:51:07;;;;;;;;;1.33;1.00;;;;;22.72;50.90;101723.09;5015021;28;45382;-84
2021/08/22 09:53:51;;;;;;;;;1.33;1.00;;;;;22.58;52.26;101720.63;5015769;28;45387;-83
2021/08/22 09:56:52;;;;;;;;;1.33;1.33;;;;;22.42;52.97;101715.53;5017571;28;46682;-84
2021/08/22 09:59:55;;;;;;;;;3.00;1.33;;;;;22.29;53.71;101719.34;4977828;28;45357;-83
2021/08/22 10:02:39;;;;;;;;;1.00;1.00;;;;;22.15;53.95;101712.41;4976085;28;45533;-84
2021/08/22 10:05:13;;;;;;;;;0.00;0.00;;;;;22.14;54.52;101717.78;4957778;28;45398;-83
2021/08/22 10:08:00;;;;;;;;;0.00;0.00;;;;;22.07;53.44;101722.34;4955618;28;46355;-83
2021/08/22 10:10:34;;;;;;;;;2.00;1.00;;;;;21.97;52.72;101710.91;4956014;28;45729;-82
2021/08/22 10:12:59;;;;;;;;;0.67;0.00;;;;;22.05;53.58;101722.38;4955799;28;45346;-81
2021/08/22 10:15:25;;;;;;;;;1.00;0.00;;;;;22.16;52.98;101713.28;4956119;28;45402;-81
2021/08/22 10:17:51;;;;;;;;;0.00;0.00;;;;;22.21;52.63;101716.75;4955628;28;46424;-81
2021/08/22 10:20:17;;;;;;;;;1.00;0.00;;;;;22.28;52.87;101720.22;4991755;28;45403;-81
2021/08/22 10:22:43;;;;;;;;;0.00;0.00;;;;;22.39;52.56;101710.25;5034347;28;45288;-81
2021/08/22 10:25:16;;;;;;;;;0.33;0.33;;;;;22.67;53.09;101708.91;5034491;28;45586;-80
2021/08/22 10:27:53;;;;;;;;;2.00;1.00;;;;;22.98;53.23;101716.38;5034347;28;45532;-80
2021/08/22 10:30:20;;;;;;;;;1.67;1.00;;;;;23.28;52.45;101715.78;5034286;28;45557;-82
2021/08/22 10:32:57;;;;;;;;;1.00;1.00;;;;;23.65;51.45;101714.13;5034336;28;45433;-81
2021/08/22 10:35:24;;;;;;;;;1.33;1.00;;;;;23.99;51.23;101706.22;5059887;27;45340;-81
2021/08/22 10:37:50;;;;;;;;;2.67;1.00;;;;;24.20;50.47;101696.75;5078852;27;47417;-81
2021/08/22 10:40:30;;;;;;;;;1.67;1.00;;;;;24.23;49.49;101710.16;5097335;27;45207;-81
2021/08/22 10:43:04;;;;;;;;;3.33;1.00;;;;;24.14;49.21;101702.28;5096813;27;45458;-83
2021/08/22 10:45:41;;;;;;;;;1.67;0.33;;;;;24.20;48.83;101706.66;5097185;27;45338;-80
2021/08/22 10:48:08;;;;;;;;;0.67;0.67;;;;;25.36;49.14;101698.22;5078737;27;47105;-81
2021/08/22 10:50:59;;;;;;;;;0.00;0.00;;;;;26.12;47.55;101703.94;5078836;27;45377;-81
2021/08/22 10:53:35;;;;;;;;;2.00;0.33;;;;;26.25;46.75;101709.81;5097150;27;45699;-81
2021/08/22 10:56:23;;;;;;;;;3.00;1.00;;;;;26.39;46.60;101703.13;5095754;27;45334;-82
2021/08/22 10:58:58;;;;;;;;;0.33;0.33;;;;;26.48;46.15;101689.31;5097220;27;45920;-82
2021/08/22 11:01:24;;;;;;;;;1.00;1.00;;;;;26.44;45.52;101694.88;5097101;27;45280;-81
2021/08/22 11:04:11;;;;;;;;;1.00;1.00;;;;;26.30;44.46;101700.69;5097322;27;45337;-83
2021/08/22 11:06:52;;;;;;;;;1.00;1.00;;;;;26.17;45.36;101690.34;5097272;27;45375;-82
2021/08/22 11:09:42;;;;;;;;;2.00;1.00;;;;;26.20;44.84;101703.72;5096981;27;46165;-82
2021/08/22 11:12:30;;;;;;;;;2.00;1.00;;;;;26.27;44.46;101698.13;5096607;27;45355;-83
2021/08/22 11:14:58;;;;;;;;;1.00;1.00;;;;;26.40;44.91;101695.94;5096861;27;45358;-83
2021/08/22 11:17:25;;;;;;;;;3.00;2.00;;;;;26.59;44.47;101683.53;5096838;27;45520;-83
2021/08/22 11:19:51;;;;;;;;;0.33;0.33;;;;;26.86;44.61;101688.03;5096518;27;47289;-82
2021/08/22 11:22:29;;;;;;;;;1.00;1.00;;;;;27.09;44.06;101698.91;5096509;27;45308;-84
2021/08/22 11:24:57;;;;;;;;;1.00;1.00;;;;;27.27;42.85;101691.94;5097112;27;45338;-83
2021/08/22 11:27:27;;;;;;;;;1.00;1.00;;;;;27.34;43.11;101697.97;5096794;27;45309;-83
2021/08/22 11:30:05;;;;;;;;;0.00;0.00;;;;;27.35;43.07;101695.22;5096319;27;45467;-80
2021/08/22 11:32:31;;;;;;;;;1.00;1.00;;;;;27.24;42.77;101689.38;5096395;27;45435;-83
2021/08/22 11:35:28;;;;;;;;;1.00;1.00;;;;;26.98;41.60;101691.19;5096619;27;45447;-83